sensor_id;sensor_type;location;lat;lon;timestamp;pressure;altitude;pressure_sealevel;temperature;humidity
10618;BME280;5356;43.526;26.534;2023-04-27T00:01:37;98684.81;;;11.05;100.00
10618;BME280;5356;43.526;26.534;2023-04-27T00:04:02;98679.34;;;11.12;100.00
10618;BME280;5356;43.526;26.534;2023-04-27T00:06:31;98684.69;;;11.12;100.00
10618;BME280;5356;43.526;26.534;2023-04-27T00:08:58;98684.03;;;11.05;100.00
10618;BME280;5356;43.526;26.534;2023-04-27T00:11:24;98689.47;;;11.10;100.00
10618;BME280;5356;43.526;26.534;2023-04-27T00:13:49;98688.78;;;11.02;100.00
10618;BME280;5356;43.526;26.534;2023-04-27T00:16:15;98691.44;;;11.02;100.00
10618;BME280;5356;43.526;26.534;2023-04-27T00:18:43;98692.13;;;11.10;100.00
10618;BME280;5356;43.526;26.534;2023-04-27T00:21:22;98690.97;;;11.06;100.00
10618;BME280;5356;43.526;26.534;2023-04-27T00:23:48;98695.34;;;11.12;100.00
10618;BME280;5356;43.526;26.534;2023-04-27T00:26:13;98694.31;;;11.01;100.00
10618;BME280;5356;43.526;26.534;2023-04-27T00:28:39;98700.00;;;11.05;100.00
10618;BME280;5356;43.526;26.534;2023-04-27T00:31:04;98693.75;;;11.11;100.00
10618;BME280;5356;43.526;26.534;2023-04-27T00:33:30;98700.22;;;11.15;100.00
10618;BME280;5356;43.526;26.534;2023-04-27T00:36:00;98708.78;;;11.17;100.00
10618;BME280;5356;43.526;26.534;2023-04-27T00:38:26;98705.22;;;10.99;100.00
10618;BME280;5356;43.526;26.534;2023-04-27T00:41:02;98702.78;;;10.98;100.00
10618;BME280;5356;43.526;26.534;2023-04-27T00:43:28;98707.91;;;10.99;100.00
10618;BME280;5356;43.526;26.534;2023-04-27T00:45:54;98712.75;;;11.02;100.00
10618;BME280;5356;43.526;26.534;2023-04-27T00:48:20;98709.31;;;10.90;100.00
10618;BME280;5356;43.526;26.534;2023-04-27T00:50:46;98719.25;;;10.83;100.00
10618;BME280;5356;43.526;26.534;2023-04-27T00:53:11;98723.53;;;10.72;100.00
10618;BME280;5356;43.526;26.534;2023-04-27T00:55:37;98722.28;;;10.51;100.00
10618;BME280;5356;43.526;26.534;2023-04-27T00:58:02;98714.38;;;10.33;100.00
10618;BME280;5356;43.526;26.534;2023-04-27T01:00:28;98718.53;;;10.29;100.00
10618;BME280;5356;43.526;26.534;2023-04-27T01:02:54;98718.97;;;10.26;100.00
10618;BME280;5356;43.526;26.534;2023-04-27T01:05:19;98717.09;;;10.15;100.00
10618;BME280;5356;43.526;26.534;2023-04-27T01:07:47;98709.63;;;9.93;100.00
10618;BME280;5356;43.526;26.534;2023-04-27T01:10:12;98711.44;;;9.81;100.00
10618;BME280;5356;43.526;26.534;2023-04-27T01:12:37;98705.31;;;9.80;100.00
10618;BME280;5356;43.526;26.534;2023-04-27T01:15:05;98715.06;;;9.86;100.00
10618;BME280;5356;43.526;26.534;2023-04-27T01:17:30;98718.47;;;9.75;100.00
10618;BME280;5356;43.526;26.534;2023-04-27T01:19:56;98715.69;;;9.70;100.00
10618;BME280;5356;43.526;26.534;2023-04-27T01:22:23;98716.69;;;9.57;100.00
10618;BME280;5356;43.526;26.534;2023-04-27T01:24:49;98718.25;;;9.47;100.00
10618;BME280;5356;43.526;26.534;2023-04-27T01:27:15;98722.97;;;9.44;100.00
10618;BME280;5356;43.526;26.534;2023-04-27T01:29:40;98725.69;;;9.56;100.00
10618;BME280;5356;43.526;26.534;2023-04-27T01:32:06;98728.28;;;9.63;100.00
10618;BME280;5356;43.526;26.534;2023-04-27T01:34:31;98731.81;;;9.57;100.00
10618;BME280;5356;43.526;26.534;2023-04-27T01:36:57;98727.84;;;9.48;100.00
10618;BME280;5356;43.526;26.534;2023-04-27T01:39:22;98732.41;;;9.59;100.00
10618;BME280;5356;43.526;26.534;2023-04-27T01:41:48;98732.91;;;9.67;100.00
10618;BME280;5356;43.526;26.534;2023-04-27T01:44:13;98731.56;;;9.77;100.00
10618;BME280;5356;43.526;26.534;2023-04-27T01:46:38;98729.78;;;9.71;100.00
10618;BME280;5356;43.526;26.534;2023-04-27T01:49:05;98730.97;;;9.75;100.00
10618;BME280;5356;43.526;26.534;2023-04-27T01:51:30;98731.59;;;9.58;100.00
10618;BME280;5356;43.526;26.534;2023-04-27T01:53:57;98734.69;;;9.55;100.00
10618;BME280;5356;43.526;26.534;2023-04-27T01:56:22;98736.69;;;9.60;100.00
10618;BME280;5356;43.526;26.534;2023-04-27T01:58:48;98735.34;;;9.69;100.00
10618;BME280;5356;43.526;26.534;2023-04-27T02:01:13;98743.97;;;9.64;100.00
10618;BME280;5356;43.526;26.534;2023-04-27T02:03:39;98748.53;;;9.76;100.00
10618;BME280;5356;43.526;26.534;2023-04-27T02:06:04;98749.84;;;9.85;100.00
10618;BME280;5356;43.526;26.534;2023-04-27T02:08:30;98747.38;;;9.72;100.00
10618;BME280;5356;43.526;26.534;2023-04-27T02:10:55;98753.00;;;9.63;100.00
10618;BME280;5356;43.526;26.534;2023-04-27T02:13:21;98753.47;;;9.60;100.00
10618;BME280;5356;43.526;26.534;2023-04-27T02:15:46;98760.09;;;9.70;100.00
10618;BME280;5356;43.526;26.534;2023-04-27T02:18:12;98759.03;;;9.71;100.00
10618;BME280;5356;43.526;26.534;2023-04-27T02:20:38;98761.59;;;9.65;100.00
10618;BME280;5356;43.526;26.534;2023-04-27T02:23:03;98767.41;;;9.56;100.00
10618;BME280;5356;43.526;26.534;2023-04-27T02:25:29;98770.16;;;9.49;100.00
10618;BME280;5356;43.526;26.534;2023-04-27T02:27:54;98758.47;;;9.50;100.00
10618;BME280;5356;43.526;26.534;2023-04-27T02:30:20;98767.88;;;9.53;100.00
10618;BME280;5356;43.526;26.534;2023-04-27T02:32:45;98758.72;;;9.49;100.00
10618;BME280;5356;43.526;26.534;2023-04-27T02:35:11;98765.59;;;9.38;100.00
10618;BME280;5356;43.526;26.534;2023-04-27T02:37:37;98759.38;;;9.44;100.00
10618;BME280;5356;43.526;26.534;2023-04-27T02:40:02;98764.50;;;9.46;100.00
10618;BME280;5356;43.526;26.534;2023-04-27T02:42:30;98768.41;;;9.43;100.00
10618;BME280;5356;43.526;26.534;2023-04-27T02:44:56;98766.59;;;9.55;100.00
10618;BME280;5356;43.526;26.534;2023-04-27T02:47:21;98786.97;;;9.61;100.00
10618;BME280;5356;43.526;26.534;2023-04-27T02:49:46;98789.94;;;9.53;100.00
10618;BME280;5356;43.526;26.534;2023-04-27T02:52:12;98779.16;;;9.48;100.00
10618;BME280;5356;43.526;26.534;2023-04-27T02:54:41;98782.13;;;9.58;100.00
10618;BME280;5356;43.526;26.534;2023-04-27T02:57:07;98782.56;;;9.55;100.00
10618;BME280;5356;43.526;26.534;2023-04-27T02:59:32;98789.94;;;9.53;100.00
10618;BME280;5356;43.526;26.534;2023-04-27T03:01:58;98789.44;;;9.44;100.00
10618;BME280;5356;43.526;26.534;2023-04-27T03:04:23;98792.59;;;9.53;100.00
10618;BME280;5356;43.526;26.534;2023-04-27T03:06:49;98798.06;;;9.58;100.00
10618;BME280;5356;43.526;26.534;2023-04-27T03:09:15;98810.03;;;9.67;100.00
10618;BME280;5356;43.526;26.534;2023-04-27T03:11:40;98803.16;;;9.78;100.00
10618;BME280;5356;43.526;26.534;2023-04-27T03:14:06;98812.22;;;9.71;100.00
10618;BME280;5356;43.526;26.534;2023-04-27T03:16:32;98826.13;;;9.73;100.00
10618;BME280;5356;43.526;26.534;2023-04-27T03:18:57;98828.94;;;9.78;100.00
10618;BME280;5356;43.526;26.534;2023-04-27T03:21:23;98840.84;;;9.75;100.00
10618;BME280;5356;43.526;26.534;2023-04-27T03:23:54;98829.59;;;9.73;100.00
10618;BME280;5356;43.526;26.534;2023-04-27T03:26:20;98830.78;;;9.77;100.00
10618;BME280;5356;43.526;26.534;2023-04-27T03:28:45;98834.19;;;9.66;100.00
10618;BME280;5356;43.526;26.534;2023-04-27T03:31:12;98844.16;;;9.71;100.00
10618;BME280;5356;43.526;26.534;2023-04-27T03:33:39;98841.78;;;9.81;100.00
10618;BME280;5356;43.526;26.534;2023-04-27T03:36:06;98849.63;;;9.94;100.00
10618;BME280;5356;43.526;26.534;2023-04-27T03:38:32;98844.81;;;10.03;100.00
10618;BME280;5356;43.526;26.534;2023-04-27T03:40:58;98846.91;;;10.12;100.00
10618;BME280;5356;43.526;26.534;2023-04-27T03:43:24;98855.25;;;10.16;100.00
10618;BME280;5356;43.526;26.534;2023-04-27T03:45:50;98854.00;;;10.19;100.00
10618;BME280;5356;43.526;26.534;2023-04-27T03:48:16;98851.72;;;10.22;100.00
10618;BME280;5356;43.526;26.534;2023-04-27T03:50:42;98856.75;;;10.12;100.00
10618;BME280;5356;43.526;26.534;2023-04-27T03:53:08;98853.38;;;10.05;100.00
10618;BME280;5356;43.526;26.534;2023-04-27T03:55:41;98861.41;;;10.17;100.00
10618;BME280;5356;43.526;26.534;2023-04-27T03:58:06;98865.69;;;10.18;100.00
10618;BME280;5356;43.526;26.534;2023-04-27T04:00:33;98859.91;;;10.21;100.00
10618;BME280;5356;43.526;26.534;2023-04-27T04:02:58;98871.75;;;10.25;100.00
10618;BME280;5356;43.526;26.534;2023-04-27T04:05:32;98866.00;;;10.28;100.00
10618;BME280;5356;43.526;26.534;2023-04-27T04:07:57;98873.91;;;10.34;100.00
10618;BME280;5356;43.526;26.534;2023-04-27T04:10:24;98879.41;;;10.51;100.00
10618;BME280;5356;43.526;26.534;2023-04-27T04:12:51;98881.94;;;10.58;100.00
10618;BME280;5356;43.526;26.534;2023-04-27T04:15:17;98884.66;;;10.70;100.00
10618;BME280;5356;43.526;26.534;2023-04-27T04:17:43;98893.69;;;10.69;100.00
10618;BME280;5356;43.526;26.534;2023-04-27T04:20:10;98892.88;;;10.68;100.00
10618;BME280;5356;43.526;26.534;2023-04-27T04:22:37;98888.19;;;10.82;100.00
10618;BME280;5356;43.526;26.534;2023-04-27T04:25:03;98882.28;;;10.92;100.00
10618;BME280;5356;43.526;26.534;2023-04-27T04:27:29;98885.88;;;11.09;100.00
10618;BME280;5356;43.526;26.534;2023-04-27T04:29:56;98890.41;;;11.32;100.00
10618;BME280;5356;43.526;26.534;2023-04-27T04:32:22;98887.53;;;11.45;100.00
10618;BME280;5356;43.526;26.534;2023-04-27T04:34:49;98889.38;;;11.45;100.00
10618;BME280;5356;43.526;26.534;2023-04-27T04:37:17;98893.66;;;11.46;100.00
10618;BME280;5356;43.526;26.534;2023-04-27T04:39:43;98900.66;;;11.35;100.00
10618;BME280;5356;43.526;26.534;2023-04-27T04:42:14;98892.41;;;11.37;100.00
10618;BME280;5356;43.526;26.534;2023-04-27T04:44:39;98898.78;;;11.24;100.00
10618;BME280;5356;43.526;26.534;2023-04-27T04:47:05;98892.06;;;11.21;100.00
10618;BME280;5356;43.526;26.534;2023-04-27T04:49:30;98901.78;;;11.16;100.00
10618;BME280;5356;43.526;26.534;2023-04-27T04:51:56;98902.44;;;10.99;100.00
10618;BME280;5356;43.526;26.534;2023-04-27T04:54:21;98908.44;;;10.83;100.00
10618;BME280;5356;43.526;26.534;2023-04-27T04:56:47;98896.50;;;10.74;100.00
10618;BME280;5356;43.526;26.534;2023-04-27T04:59:12;98912.16;;;10.82;100.00
10618;BME280;5356;43.526;26.534;2023-04-27T05:01:38;98915.03;;;10.81;100.00
10618;BME280;5356;43.526;26.534;2023-04-27T05:04:03;98916.06;;;10.68;100.00
10618;BME280;5356;43.526;26.534;2023-04-27T05:06:29;98913.59;;;10.66;100.00
10618;BME280;5356;43.526;26.534;2023-04-27T05:08:54;98910.25;;;10.71;100.00
10618;BME280;5356;43.526;26.534;2023-04-27T05:11:20;98926.59;;;10.74;100.00
10618;BME280;5356;43.526;26.534;2023-04-27T05:13:46;98924.19;;;10.73;100.00
10618;BME280;5356;43.526;26.534;2023-04-27T05:16:12;98923.22;;;10.67;100.00
10618;BME280;5356;43.526;26.534;2023-04-27T05:18:37;98925.66;;;10.69;100.00
10618;BME280;5356;43.526;26.534;2023-04-27T05:21:02;98922.53;;;10.72;100.00
10618;BME280;5356;43.526;26.534;2023-04-27T05:23:28;98918.50;;;10.81;100.00
10618;BME280;5356;43.526;26.534;2023-04-27T05:25:53;98916.78;;;10.87;100.00
10618;BME280;5356;43.526;26.534;2023-04-27T05:28:19;98923.41;;;10.84;100.00
10618;BME280;5356;43.526;26.534;2023-04-27T05:30:45;98916.19;;;10.73;100.00
10618;BME280;5356;43.526;26.534;2023-04-27T05:33:10;98929.31;;;10.86;100.00
10618;BME280;5356;43.526;26.534;2023-04-27T05:35:35;98932.88;;;10.80;100.00
10618;BME280;5356;43.526;26.534;2023-04-27T05:38:01;98924.94;;;10.62;100.00
10618;BME280;5356;43.526;26.534;2023-04-27T05:40:27;98927.63;;;10.62;100.00
10618;BME280;5356;43.526;26.534;2023-04-27T05:42:52;98930.78;;;10.70;99.45
10618;BME280;5356;43.526;26.534;2023-04-27T05:45:18;98931.59;;;10.71;99.11
10618;BME280;5356;43.526;26.534;2023-04-27T05:47:44;98927.28;;;10.70;99.32
10618;BME280;5356;43.526;26.534;2023-04-27T05:50:10;98933.88;;;10.67;98.69
10618;BME280;5356;43.526;26.534;2023-04-27T05:52:36;98932.59;;;10.70;99.46
10618;BME280;5356;43.526;26.534;2023-04-27T05:55:01;98927.63;;;10.62;97.04
10618;BME280;5356;43.526;26.534;2023-04-27T05:57:27;98939.75;;;10.57;96.73
10618;BME280;5356;43.526;26.534;2023-04-27T05:59:53;98940.16;;;10.73;98.13
10618;BME280;5356;43.526;26.534;2023-04-27T06:02:18;98943.06;;;10.83;99.37
10618;BME280;5356;43.526;26.534;2023-04-27T06:04:45;98946.78;;;10.82;97.96
10618;BME280;5356;43.526;26.534;2023-04-27T06:07:12;98942.72;;;10.79;97.54
10618;BME280;5356;43.526;26.534;2023-04-27T06:09:38;98948.50;;;10.76;95.25
10618;BME280;5356;43.526;26.534;2023-04-27T06:12:05;98938.97;;;10.69;95.55
10618;BME280;5356;43.526;26.534;2023-04-27T06:14:35;98947.28;;;10.61;95.17
10618;BME280;5356;43.526;26.534;2023-04-27T06:17:02;98944.72;;;10.54;92.41
10618;BME280;5356;43.526;26.534;2023-04-27T06:19:30;98954.22;;;10.31;91.01
10618;BME280;5356;43.526;26.534;2023-04-27T06:21:55;98958.13;;;10.47;94.06
10618;BME280;5356;43.526;26.534;2023-04-27T06:24:22;98951.75;;;10.48;92.84
10618;BME280;5356;43.526;26.534;2023-04-27T06:26:56;98948.94;;;10.43;92.54
10618;BME280;5356;43.526;26.534;2023-04-27T06:29:24;98944.81;;;10.47;92.63
10618;BME280;5356;43.526;26.534;2023-04-27T06:31:51;98950.84;;;10.54;92.28
10618;BME280;5356;43.526;26.534;2023-04-27T06:34:16;98949.28;;;10.65;94.81
10618;BME280;5356;43.526;26.534;2023-04-27T06:36:42;98949.03;;;10.67;94.56
10618;BME280;5356;43.526;26.534;2023-04-27T06:39:08;98945.91;;;10.70;93.32
10618;BME280;5356;43.526;26.534;2023-04-27T06:41:33;98942.38;;;10.76;93.70
10618;BME280;5356;43.526;26.534;2023-04-27T06:43:59;98945.84;;;10.76;93.11
10618;BME280;5356;43.526;26.534;2023-04-27T06:46:24;98949.13;;;10.90;92.76
10618;BME280;5356;43.526;26.534;2023-04-27T06:48:50;98950.31;;;11.06;94.37
10618;BME280;5356;43.526;26.534;2023-04-27T06:51:16;98945.94;;;11.12;91.71
10618;BME280;5356;43.526;26.534;2023-04-27T06:53:42;98948.91;;;11.04;89.17
10618;BME280;5356;43.526;26.534;2023-04-27T06:56:09;98952.66;;;11.14;92.82
10618;BME280;5356;43.526;26.534;2023-04-27T06:58:36;98958.13;;;11.31;94.19
10618;BME280;5356;43.526;26.534;2023-04-27T07:01:25;98957.59;;;11.53;94.99
10618;BME280;5356;43.526;26.534;2023-04-27T07:03:50;98950.06;;;11.61;92.43
10618;BME280;5356;43.526;26.534;2023-04-27T07:06:16;98954.47;;;11.56;92.23
10618;BME280;5356;43.526;26.534;2023-04-27T07:08:41;98956.41;;;11.49;89.54
10618;BME280;5356;43.526;26.534;2023-04-27T07:11:07;98954.13;;;11.64;91.28
10618;BME280;5356;43.526;26.534;2023-04-27T07:13:32;98951.78;;;11.79;92.04
10618;BME280;5356;43.526;26.534;2023-04-27T07:15:58;98953.19;;;11.94;92.67
10618;BME280;5356;43.526;26.534;2023-04-27T07:18:27;98966.41;;;12.12;91.86
10618;BME280;5356;43.526;26.534;2023-04-27T07:20:53;98955.00;;;12.17;89.64
10618;BME280;5356;43.526;26.534;2023-04-27T07:23:19;98962.44;;;12.03;85.29
10618;BME280;5356;43.526;26.534;2023-04-27T07:25:45;98960.84;;;12.02;83.67
10618;BME280;5356;43.526;26.534;2023-04-27T07:28:11;98970.00;;;11.94;80.26
10618;BME280;5356;43.526;26.534;2023-04-27T07:30:37;98968.50;;;11.98;81.26
10618;BME280;5356;43.526;26.534;2023-04-27T07:33:04;98968.94;;;12.19;83.27
10618;BME280;5356;43.526;26.534;2023-04-27T07:35:29;98967.41;;;12.34;84.68
10618;BME280;5356;43.526;26.534;2023-04-27T07:37:56;98962.81;;;12.47;80.03
10618;BME280;5356;43.526;26.534;2023-04-27T07:40:21;98960.31;;;12.40;77.87
10618;BME280;5356;43.526;26.534;2023-04-27T07:42:48;98972.97;;;12.33;77.78
10618;BME280;5356;43.526;26.534;2023-04-27T07:45:14;98967.88;;;12.31;75.52
10618;BME280;5356;43.526;26.534;2023-04-27T07:47:42;98963.44;;;12.37;76.85
10618;BME280;5356;43.526;26.534;2023-04-27T07:50:08;98960.66;;;12.32;75.19
10618;BME280;5356;43.526;26.534;2023-04-27T07:52:34;98974.88;;;12.09;72.95
10618;BME280;5356;43.526;26.534;2023-04-27T07:55:00;98969.91;;;12.01;72.12
10618;BME280;5356;43.526;26.534;2023-04-27T07:57:26;98973.84;;;11.98;73.16
10618;BME280;5356;43.526;26.534;2023-04-27T07:59:52;98967.34;;;12.06;75.59
10618;BME280;5356;43.526;26.534;2023-04-27T08:02:17;98977.63;;;12.14;75.42
10618;BME280;5356;43.526;26.534;2023-04-27T08:04:43;98976.44;;;12.33;77.40
10618;BME280;5356;43.526;26.534;2023-04-27T08:07:08;98975.97;;;12.48;78.37
10618;BME280;5356;43.526;26.534;2023-04-27T08:09:34;98981.00;;;12.62;77.82
10618;BME280;5356;43.526;26.534;2023-04-27T08:11:59;98978.13;;;12.63;75.13
10618;BME280;5356;43.526;26.534;2023-04-27T08:14:27;98972.88;;;12.56;75.40
10618;BME280;5356;43.526;26.534;2023-04-27T08:16:52;98983.94;;;12.60;74.63
10618;BME280;5356;43.526;26.534;2023-04-27T08:19:18;98979.28;;;12.55;74.69
10618;BME280;5356;43.526;26.534;2023-04-27T08:21:43;98972.44;;;12.48;73.62
10618;BME280;5356;43.526;26.534;2023-04-27T08:24:09;98979.13;;;12.33;74.58
10618;BME280;5356;43.526;26.534;2023-04-27T08:26:34;98975.50;;;12.40;74.61
10618;BME280;5356;43.526;26.534;2023-04-27T08:29:01;98982.19;;;12.54;72.81
10618;BME280;5356;43.526;26.534;2023-04-27T08:31:26;98986.97;;;12.52;73.60
10618;BME280;5356;43.526;26.534;2023-04-27T08:33:52;98980.34;;;12.54;74.38
10618;BME280;5356;43.526;26.534;2023-04-27T08:36:20;98977.53;;;12.61;74.17
10618;BME280;5356;43.526;26.534;2023-04-27T08:38:51;98988.81;;;12.63;74.71
10618;BME280;5356;43.526;26.534;2023-04-27T08:41:20;98988.84;;;12.51;72.70
10618;BME280;5356;43.526;26.534;2023-04-27T08:43:48;98992.22;;;12.47;72.18
10618;BME280;5356;43.526;26.534;2023-04-27T08:46:21;98996.88;;;12.40;71.86
10618;BME280;5356;43.526;26.534;2023-04-27T08:48:52;98999.81;;;12.26;71.43
10618;BME280;5356;43.526;26.534;2023-04-27T08:51:18;99006.31;;;12.30;72.79
10618;BME280;5356;43.526;26.534;2023-04-27T08:53:55;99001.91;;;12.24;74.12
10618;BME280;5356;43.526;26.534;2023-04-27T08:56:25;99002.84;;;12.18;74.50
10618;BME280;5356;43.526;26.534;2023-04-27T08:58:52;99006.91;;;12.21;76.34
10618;BME280;5356;43.526;26.534;2023-04-27T09:01:19;99005.03;;;12.21;76.42
10618;BME280;5356;43.526;26.534;2023-04-27T09:03:45;99000.84;;;12.25;77.80
10618;BME280;5356;43.526;26.534;2023-04-27T09:06:11;99000.38;;;12.28;76.85
10618;BME280;5356;43.526;26.534;2023-04-27T09:11:06;99004.50;;;11.96;76.72
10618;BME280;5356;43.526;26.534;2023-04-27T09:13:39;99007.50;;;11.87;77.67
10618;BME280;5356;43.526;26.534;2023-04-27T09:16:06;98999.84;;;11.91;78.79
10618;BME280;5356;43.526;26.534;2023-04-27T09:18:35;99002.00;;;11.82;78.81
10618;BME280;5356;43.526;26.534;2023-04-27T09:21:04;99001.94;;;11.89;79.50
10618;BME280;5356;43.526;26.534;2023-04-27T09:23:33;99004.81;;;11.99;78.61
10618;BME280;5356;43.526;26.534;2023-04-27T09:26:03;99008.31;;;11.88;79.16
10618;BME280;5356;43.526;26.534;2023-04-27T09:28:33;99001.00;;;11.95;79.27
10618;BME280;5356;43.526;26.534;2023-04-27T09:31:01;99002.47;;;11.79;79.23
10618;BME280;5356;43.526;26.534;2023-04-27T09:35:53;98994.75;;;11.89;80.17
10618;BME280;5356;43.526;26.534;2023-04-27T09:38:19;99003.41;;;12.08;80.36
10618;BME280;5356;43.526;26.534;2023-04-27T09:40:46;98997.16;;;12.15;80.45
10618;BME280;5356;43.526;26.534;2023-04-27T09:43:13;98993.31;;;12.10;79.56
10618;BME280;5356;43.526;26.534;2023-04-27T09:45:38;98998.16;;;12.25;79.97
10618;BME280;5356;43.526;26.534;2023-04-27T09:48:05;98993.66;;;12.14;79.43
10618;BME280;5356;43.526;26.534;2023-04-27T09:50:39;98989.25;;;12.20;79.55
10618;BME280;5356;43.526;26.534;2023-04-27T09:53:05;98991.56;;;12.16;78.98
10618;BME280;5356;43.526;26.534;2023-04-27T09:58:34;98983.44;;;12.23;78.47
10618;BME280;5356;43.526;26.534;2023-04-27T10:01:17;98978.91;;;12.23;79.93
10618;BME280;5356;43.526;26.534;2023-04-27T10:03:54;98976.34;;;12.28;80.61
10618;BME280;5356;43.526;26.534;2023-04-27T10:09:38;98986.22;;;12.68;80.46
10618;BME280;5356;43.526;26.534;2023-04-27T10:12:25;98990.41;;;12.64;79.19
10618;BME280;5356;43.526;26.534;2023-04-27T10:14:58;98995.88;;;12.69;79.84
10618;BME280;5356;43.526;26.534;2023-04-27T10:17:32;98997.59;;;12.75;79.72
10618;BME280;5356;43.526;26.534;2023-04-27T10:20:02;98997.09;;;12.78;79.14
10618;BME280;5356;43.526;26.534;2023-04-27T10:22:46;98988.91;;;12.68;78.32
10618;BME280;5356;43.526;26.534;2023-04-27T10:25:24;98996.09;;;12.68;79.87
10618;BME280;5356;43.526;26.534;2023-04-27T10:27:52;98993.84;;;12.76;79.87
10618;BME280;5356;43.526;26.534;2023-04-27T10:30:21;99001.00;;;12.88;79.27
10618;BME280;5356;43.526;26.534;2023-04-27T10:32:58;98993.56;;;12.90;78.60
10618;BME280;5356;43.526;26.534;2023-04-27T10:35:38;99005.75;;;12.97;79.15
10618;BME280;5356;43.526;26.534;2023-04-27T10:38:47;98997.31;;;12.89;79.52
10618;BME280;5356;43.526;26.534;2023-04-27T10:40:55;99007.13;;;13.00;80.49
10618;BME280;5356;43.526;26.534;2023-04-27T10:43:25;99004.63;;;13.10;80.61
10618;BME280;5356;43.526;26.534;2023-04-27T10:45:53;99002.38;;;13.19;79.85
10618;BME280;5356;43.526;26.534;2023-04-27T10:48:23;98992.88;;;13.40;79.46
10618;BME280;5356;43.526;26.534;2023-04-27T10:50:52;98994.06;;;13.32;79.30
10618;BME280;5356;43.526;26.534;2023-04-27T10:53:18;98995.63;;;13.45;79.58
10618;BME280;5356;43.526;26.534;2023-04-27T10:55:46;98991.16;;;13.67;79.90
10618;BME280;5356;43.526;26.534;2023-04-27T10:58:12;98997.41;;;13.90;78.03
10618;BME280;5356;43.526;26.534;2023-04-27T11:00:39;99001.28;;;13.99;78.12
10618;BME280;5356;43.526;26.534;2023-04-27T11:03:19;98988.50;;;14.06;75.96
10618;BME280;5356;43.526;26.534;2023-04-27T11:05:46;98997.25;;;14.19;76.39
10618;BME280;5356;43.526;26.534;2023-04-27T11:08:15;98990.69;;;14.09;75.47
10618;BME280;5356;43.526;26.534;2023-04-27T11:10:45;98994.72;;;14.12;74.30
10618;BME280;5356;43.526;26.534;2023-04-27T11:13:18;98995.59;;;13.96;75.19
10618;BME280;5356;43.526;26.534;2023-04-27T11:15:48;98992.06;;;14.12;76.52
10618;BME280;5356;43.526;26.534;2023-04-27T11:18:16;98989.66;;;14.32;77.07
10618;BME280;5356;43.526;26.534;2023-04-27T11:20:49;98991.78;;;14.30;76.28
10618;BME280;5356;43.526;26.534;2023-04-27T11:23:28;98993.06;;;14.28;76.44
10618;BME280;5356;43.526;26.534;2023-04-27T11:25:55;98995.19;;;14.26;76.38
10618;BME280;5356;43.526;26.534;2023-04-27T11:28:22;98994.72;;;14.12;76.25
10618;BME280;5356;43.526;26.534;2023-04-27T11:30:58;98993.81;;;14.01;76.05
10618;BME280;5356;43.526;26.534;2023-04-27T11:33:24;98988.44;;;14.01;76.58
10618;BME280;5356;43.526;26.534;2023-04-27T11:35:50;98983.75;;;13.91;77.89
10618;BME280;5356;43.526;26.534;2023-04-27T11:38:17;98988.44;;;14.01;77.08
10618;BME280;5356;43.526;26.534;2023-04-27T11:40:44;98990.88;;;14.03;75.41
10618;BME280;5356;43.526;26.534;2023-04-27T11:43:11;98990.56;;;13.99;75.55
10618;BME280;5356;43.526;26.534;2023-04-27T11:45:41;98990.25;;;13.96;75.61
10618;BME280;5356;43.526;26.534;2023-04-27T11:48:14;98994.44;;;14.08;76.60
10618;BME280;5356;43.526;26.534;2023-04-27T11:50:45;99002.28;;;14.37;76.13
10618;BME280;5356;43.526;26.534;2023-04-27T11:53:12;98998.00;;;14.36;74.93
10618;BME280;5356;43.526;26.534;2023-04-27T11:55:51;98996.66;;;14.55;74.43
10618;BME280;5356;43.526;26.534;2023-04-27T11:58:17;98990.06;;;14.46;73.77
10618;BME280;5356;43.526;26.534;2023-04-27T12:00:43;98991.47;;;14.71;73.67
10618;BME280;5356;43.526;26.534;2023-04-27T12:03:08;98990.53;;;14.82;73.63
10618;BME280;5356;43.526;26.534;2023-04-27T12:05:34;98985.16;;;15.09;71.90
10618;BME280;5356;43.526;26.534;2023-04-27T12:08:00;98981.75;;;15.19;71.96
10618;BME280;5356;43.526;26.534;2023-04-27T12:10:26;98980.19;;;15.23;73.88
10618;BME280;5356;43.526;26.534;2023-04-27T12:12:52;98982.50;;;15.41;73.83
10618;BME280;5356;43.526;26.534;2023-04-27T12:15:17;98982.16;;;15.33;72.35
10618;BME280;5356;43.526;26.534;2023-04-27T12:17:43;98986.09;;;15.25;71.44
10618;BME280;5356;43.526;26.534;2023-04-27T12:20:09;98984.94;;;15.16;71.11
10618;BME280;5356;43.526;26.534;2023-04-27T12:22:35;98979.59;;;15.16;70.34
10618;BME280;5356;43.526;26.534;2023-04-27T12:25:00;98979.19;;;15.34;70.13
10618;BME280;5356;43.526;26.534;2023-04-27T12:27:26;98977.41;;;15.45;71.67
10618;BME280;5356;43.526;26.534;2023-04-27T12:29:51;98968.56;;;15.44;71.11
10618;BME280;5356;43.526;26.534;2023-04-27T12:32:18;98970.06;;;15.30;71.21
10618;BME280;5356;43.526;26.534;2023-04-27T12:34:45;98962.41;;;15.17;70.05
10618;BME280;5356;43.526;26.534;2023-04-27T12:37:11;98968.63;;;15.17;70.29
10618;BME280;5356;43.526;26.534;2023-04-27T12:39:36;98966.28;;;15.26;70.19
10618;BME280;5356;43.526;26.534;2023-04-27T12:42:02;98966.34;;;15.36;70.68
10618;BME280;5356;43.526;26.534;2023-04-27T12:44:27;98965.41;;;15.53;70.04
10618;BME280;5356;43.526;26.534;2023-04-27T12:46:54;98970.06;;;15.67;67.69
10618;BME280;5356;43.526;26.534;2023-04-27T12:49:20;98959.03;;;16.06;68.02
10618;BME280;5356;43.526;26.534;2023-04-27T12:51:45;98962.38;;;16.29;66.70
10618;BME280;5356;43.526;26.534;2023-04-27T12:54:12;98964.72;;;16.15;66.81
10618;BME280;5356;43.526;26.534;2023-04-27T12:56:38;98968.09;;;16.53;65.79
10618;BME280;5356;43.526;26.534;2023-04-27T12:59:04;98960.72;;;16.91;65.62
10618;BME280;5356;43.526;26.534;2023-04-27T13:01:32;98962.59;;;16.95;64.37
10618;BME280;5356;43.526;26.534;2023-04-27T13:03:59;98973.94;;;17.08;62.20
10618;BME280;5356;43.526;26.534;2023-04-27T13:06:26;98962.34;;;17.07;62.03
10618;BME280;5356;43.526;26.534;2023-04-27T13:08:53;98969.06;;;16.99;61.43